Beaver County Airport
KBVI : now visible

Airfield :











YOU CAN JOIN US ON...

 
LOGIN :

Register | Disclaimer

   EN    FR    IT 

 









Legend :    VFR   Marginal VFR   IFR   Intensive IFR   Very Intensive IFR
Visi :
Ceiling :
>= 8 km
>= 3000ft
5 to 8 km
1000 to 3000 ft
1500m to 5 km
500 to 1000 ft
800 to 1500m
200 to 500 ft
< 800m
< 200 ft
Symbols :   Thunderstorms  Fog  Heavy snow  Heavy precipitations  Wind > 20 kt






- Airport Elevation : 1253 ft


KBVI - Beaver County

CURRENT METAR :
  • 141636Z AUTO 23007KT 200V260 10SM SCT090 OVC120 03/M05 A3022 RMK AO2 T00271049

EXPIRED METARs :
  • 141615Z AUTO 25005KT 10SM SCT095 BKN120 02/M05 A3022 RMK AO2 T00211049
  • 141435Z AUTO 19005KT 10SM OVC110 00/M05 A3021 RMK AO2 T00001055
  • 141416Z AUTO 18007KT 10SM BKN120 00/M06 A3021 RMK AO2 T10051059
  • 141355Z AUTO 20006KT 10SM BKN110 M01/M06 A3022 RMK AO2 T10071060

TAF KBVI
Valid from the 14 at 12:00 until the 15 at 12:00 UTC


141130Z 1412/1512 16005KT P6SM OVC120
FM141800 23010G18KT P6SM SCT120
FM142300 23005KT P6SM SCT250



MET'MAP, your aeronautical weather chart ! - Copyright ORBIFLY December 2007 - Disclaimer

ORBIFLY MET'MAP TEAM :

Programming & Development : Alexandra Zaïnal
Concept & Development : Baudouin d'Aumeries
Co-Development & Prog : Marc-Olivier Méhu
Technical & hardware support : Manuel Goepfert

Contact : metmap@orbifly.com




SOURCES & CREDITS :

   NOAA       Earth
Advisory